sensor_id;sensor_type;location;lat;lon;timestamp;temperature;humidity
72576;DHT22;60613;48.658;2.328;2023-01-10T07:02:38;21.20;38.90
72576;DHT22;60613;48.658;2.328;2023-01-10T07:05:04;21.20;39.70
72576;DHT22;60613;48.658;2.328;2023-01-10T07:07:30;21.20;39.90
72576;DHT22;60613;48.658;2.328;2023-01-10T07:09:55;21.20;39.50
72576;DHT22;60613;48.658;2.328;2023-01-10T07:12:22;21.20;39.50
72576;DHT22;60613;48.658;2.328;2023-01-10T07:14:47;21.30;39.60
72576;DHT22;60613;48.658;2.328;2023-01-10T07:17:13;21.30;39.30
72576;DHT22;60613;48.658;2.328;2023-01-10T07:19:39;21.30;39.30
72576;DHT22;60613;48.658;2.328;2023-01-10T07:22:04;21.30;39.20
72576;DHT22;60613;48.658;2.328;2023-01-10T07:24:30;21.40;39.30
72576;DHT22;60613;48.658;2.328;2023-01-10T07:26:55;21.40;39.10
72576;DHT22;60613;48.658;2.328;2023-01-10T07:29:21;21.40;39.00
72576;DHT22;60613;48.658;2.328;2023-01-10T07:31:47;21.40;38.30
72576;DHT22;60613;48.658;2.328;2023-01-10T07:34:12;21.30;38.40
72576;DHT22;60613;48.658;2.328;2023-01-10T07:36:38;21.30;38.40
72576;DHT22;60613;48.658;2.328;2023-01-10T07:39:03;21.30;38.50
72576;DHT22;60613;48.658;2.328;2023-01-10T07:41:29;21.30;38.60
72576;DHT22;60613;48.658;2.328;2023-01-10T07:43:55;21.20;38.40
72576;DHT22;60613;48.658;2.328;2023-01-10T07:46:20;21.20;38.50
72576;DHT22;60613;48.658;2.328;2023-01-10T07:48:46;21.20;38.50
72576;DHT22;60613;48.658;2.328;2023-01-10T07:51:13;21.20;38.50
72576;DHT22;60613;48.658;2.328;2023-01-10T07:53:39;21.20;38.60
72576;DHT22;60613;48.658;2.328;2023-01-10T07:56:05;21.20;38.40
72576;DHT22;60613;48.658;2.328;2023-01-10T07:58:31;21.20;38.50
72576;DHT22;60613;48.658;2.328;2023-01-10T08:01:02;21.20;38.50
72576;DHT22;60613;48.658;2.328;2023-01-10T08:03:28;21.20;38.60
72576;DHT22;60613;48.658;2.328;2023-01-10T08:06:02;21.20;38.60
72576;DHT22;60613;48.658;2.328;2023-01-10T08:08:28;21.20;38.60
72576;DHT22;60613;48.658;2.328;2023-01-10T08:10:54;21.10;38.60
72576;DHT22;60613;48.658;2.328;2023-01-10T08:13:20;21.20;38.50
72576;DHT22;60613;48.658;2.328;2023-01-10T08:15:46;21.20;38.50
72576;DHT22;60613;48.658;2.328;2023-01-10T08:18:14;21.20;38.60
72576;DHT22;60613;48.658;2.328;2023-01-10T08:20:40;21.20;38.50
72576;DHT22;60613;48.658;2.328;2023-01-10T08:23:05;21.30;38.70
72576;DHT22;60613;48.658;2.328;2023-01-10T08:25:31;21.30;38.70
72576;DHT22;60613;48.658;2.328;2023-01-10T08:27:57;21.30;38.60
72576;DHT22;60613;48.658;2.328;2023-01-10T08:30:22;21.40;38.60
72576;DHT22;60613;48.658;2.328;2023-01-10T08:32:48;20.90;35.20
72576;DHT22;60613;48.658;2.328;2023-01-10T08:35:14;20.60;34.40
72576;DHT22;60613;48.658;2.328;2023-01-10T08:37:39;20.40;34.70
72576;DHT22;60613;48.658;2.328;2023-01-10T08:40:05;20.00;35.10
72576;DHT22;60613;48.658;2.328;2023-01-10T08:42:31;19.80;35.90
72576;DHT22;60613;48.658;2.328;2023-01-10T08:44:57;19.60;36.30
72576;DHT22;60613;48.658;2.328;2023-01-10T08:47:24;19.30;36.90
72576;DHT22;60613;48.658;2.328;2023-01-10T08:49:50;19.10;37.50
72576;DHT22;60613;48.658;2.328;2023-01-10T08:52:15;18.90;38.20
72576;DHT22;60613;48.658;2.328;2023-01-10T08:54:41;18.70;38.50
72576;DHT22;60613;48.658;2.328;2023-01-10T08:57:07;18.50;39.00
72576;DHT22;60613;48.658;2.328;2023-01-10T08:59:33;18.30;39.30
72576;DHT22;60613;48.658;2.328;2023-01-10T09:01:58;18.20;39.80
72576;DHT22;60613;48.658;2.328;2023-01-10T09:04:27;18.00;40.40
72576;DHT22;60613;48.658;2.328;2023-01-10T09:06:54;17.90;40.50
72576;DHT22;60613;48.658;2.328;2023-01-10T09:09:20;17.90;42.20
72576;DHT22;60613;48.658;2.328;2023-01-10T09:11:46;18.20;41.60
72576;DHT22;60613;48.658;2.328;2023-01-10T09:14:12;18.60;41.90
72576;DHT22;60613;48.658;2.328;2023-01-10T09:16:37;18.80;42.60
72576;DHT22;60613;48.658;2.328;2023-01-10T09:19:03;19.10;40.20
72576;DHT22;60613;48.658;2.328;2023-01-10T09:21:28;19.30;40.80
72576;DHT22;60613;48.658;2.328;2023-01-10T09:23:54;19.50;40.60
72576;DHT22;60613;48.658;2.328;2023-01-10T09:26:20;19.60;40.40
72576;DHT22;60613;48.658;2.328;2023-01-10T09:28:45;19.70;40.50
72576;DHT22;60613;48.658;2.328;2023-01-10T09:31:11;19.80;40.40
72576;DHT22;60613;48.658;2.328;2023-01-10T09:33:38;19.90;40.70
72576;DHT22;60613;48.658;2.328;2023-01-10T09:36:06;20.00;41.40
72576;DHT22;60613;48.658;2.328;2023-01-10T09:38:33;20.00;42.00
72576;DHT22;60613;48.658;2.328;2023-01-10T09:43:49;20.10;41.90
72576;DHT22;60613;48.658;2.328;2023-01-10T09:51:42;20.30;42.20
72576;DHT22;60613;48.658;2.328;2023-01-10T09:54:24;20.40;42.30
72576;DHT22;60613;48.658;2.328;2023-01-10T09:56:51;20.40;43.00
72576;DHT22;60613;48.658;2.328;2023-01-10T09:59:22;20.40;43.10
72576;DHT22;60613;48.658;2.328;2023-01-10T10:01:53;20.50;43.40
72576;DHT22;60613;48.658;2.328;2023-01-10T10:04:32;20.50;42.90
72576;DHT22;60613;48.658;2.328;2023-01-10T10:06:59;20.50;43.20
72576;DHT22;60613;48.658;2.328;2023-01-10T10:09:27;20.50;42.90
72576;DHT22;60613;48.658;2.328;2023-01-10T10:12:20;20.60;42.80
72576;DHT22;60613;48.658;2.328;2023-01-10T10:20:45;20.70;42.80
72576;DHT22;60613;48.658;2.328;2023-01-10T10:23:34;20.70;42.80
72576;DHT22;60613;48.658;2.328;2023-01-10T10:26:27;20.80;42.70
72576;DHT22;60613;48.658;2.328;2023-01-10T10:31:59;20.80;42.60
72576;DHT22;60613;48.658;2.328;2023-01-10T10:34:54;20.80;42.60
72576;DHT22;60613;48.658;2.328;2023-01-10T10:37:41;20.80;42.50
72576;DHT22;60613;48.658;2.328;2023-01-10T10:42:42;20.90;42.20
72576;DHT22;60613;48.658;2.328;2023-01-10T10:45:33;20.90;42.10
72576;DHT22;60613;48.658;2.328;2023-01-10T10:48:12;20.90;42.00
72576;DHT22;60613;48.658;2.328;2023-01-10T10:50:49;20.90;41.90
72576;DHT22;60613;48.658;2.328;2023-01-10T10:53:16;21.00;42.00
72576;DHT22;60613;48.658;2.328;2023-01-10T10:55:43;20.90;41.50
72576;DHT22;60613;48.658;2.328;2023-01-10T10:58:11;20.90;41.70
72576;DHT22;60613;48.658;2.328;2023-01-10T11:00:39;20.90;41.50
72576;DHT22;60613;48.658;2.328;2023-01-10T11:05:49;21.00;41.10
72576;DHT22;60613;48.658;2.328;2023-01-10T11:08:16;21.00;41.00
72576;DHT22;60613;48.658;2.328;2023-01-10T11:10:52;21.00;41.00
72576;DHT22;60613;48.658;2.328;2023-01-10T11:15:52;21.00;40.80
72576;DHT22;60613;48.658;2.328;2023-01-10T11:18:24;21.00;40.90
72576;DHT22;60613;48.658;2.328;2023-01-10T11:20:53;21.00;40.70
72576;DHT22;60613;48.658;2.328;2023-01-10T11:26:07;21.00;40.60
72576;DHT22;60613;48.658;2.328;2023-01-10T11:28:34;20.90;40.50
72576;DHT22;60613;48.658;2.328;2023-01-10T11:31:01;20.90;40.40
72576;DHT22;60613;48.658;2.328;2023-01-10T11:33:33;20.90;40.20
72576;DHT22;60613;48.658;2.328;2023-01-10T11:36:06;20.90;40.40
72576;DHT22;60613;48.658;2.328;2023-01-10T11:38:32;20.90;40.20
72576;DHT22;60613;48.658;2.328;2023-01-10T11:41:05;20.90;40.20
72576;DHT22;60613;48.658;2.328;2023-01-10T11:43:37;20.90;40.10
72576;DHT22;60613;48.658;2.328;2023-01-10T11:49:05;20.90;40.10
72576;DHT22;60613;48.658;2.328;2023-01-10T11:51:36;21.00;40.10
72576;DHT22;60613;48.658;2.328;2023-01-10T11:54:10;20.90;39.90
72576;DHT22;60613;48.658;2.328;2023-01-10T11:56:36;21.00;39.90
72576;DHT22;60613;48.658;2.328;2023-01-10T11:59:13;20.90;40.00
72576;DHT22;60613;48.658;2.328;2023-01-10T12:01:42;21.00;39.90
72576;DHT22;60613;48.658;2.328;2023-01-10T12:04:16;21.00;39.90
72576;DHT22;60613;48.658;2.328;2023-01-10T12:06:48;21.00;39.90
72576;DHT22;60613;48.658;2.328;2023-01-10T12:09:41;21.00;40.10
72576;DHT22;60613;48.658;2.328;2023-01-10T12:12:20;21.00;40.10
72576;DHT22;60613;48.658;2.328;2023-01-10T12:14:47;21.10;40.40
72576;DHT22;60613;48.658;2.328;2023-01-10T12:17:34;21.00;40.40
72576;DHT22;60613;48.658;2.328;2023-01-10T12:20:02;21.00;40.40
72576;DHT22;60613;48.658;2.328;2023-01-10T12:22:39;21.10;40.50
72576;DHT22;60613;48.658;2.328;2023-01-10T12:25:53;21.10;40.70
72576;DHT22;60613;48.658;2.328;2023-01-10T12:27:55;21.20;40.80
72576;DHT22;60613;48.658;2.328;2023-01-10T12:30:39;21.20;41.00
72576;DHT22;60613;48.658;2.328;2023-01-10T12:33:14;21.20;40.90
72576;DHT22;60613;48.658;2.328;2023-01-10T12:38:58;21.10;41.00
72576;DHT22;60613;48.658;2.328;2023-01-10T12:47:11;21.20;41.00
72576;DHT22;60613;48.658;2.328;2023-01-10T12:55:21;21.20;41.10
72576;DHT22;60613;48.658;2.328;2023-01-10T12:57:56;21.20;41.00
72576;DHT22;60613;48.658;2.328;2023-01-10T13:00:26;21.20;41.10
72576;DHT22;60613;48.658;2.328;2023-01-10T13:02:56;21.20;41.00
72576;DHT22;60613;48.658;2.328;2023-01-10T13:05:25;21.20;40.90
72576;DHT22;60613;48.658;2.328;2023-01-10T13:07:54;21.20;41.20
72576;DHT22;60613;48.658;2.328;2023-01-10T13:10:24;21.20;41.00
72576;DHT22;60613;48.658;2.328;2023-01-10T13:12:58;21.20;41.30
72576;DHT22;60613;48.658;2.328;2023-01-10T13:15:33;21.20;41.10
72576;DHT22;60613;48.658;2.328;2023-01-10T13:18:17;21.20;41.00
72576;DHT22;60613;48.658;2.328;2023-01-10T13:20:43;21.20;40.80
72576;DHT22;60613;48.658;2.328;2023-01-10T13:23:21;21.20;41.10
72576;DHT22;60613;48.658;2.328;2023-01-10T13:26:02;21.20;41.00
72576;DHT22;60613;48.658;2.328;2023-01-10T13:28:31;21.20;40.80
72576;DHT22;60613;48.658;2.328;2023-01-10T13:30:59;21.20;41.00
72576;DHT22;60613;48.658;2.328;2023-01-10T13:33:50;21.20;41.00
72576;DHT22;60613;48.658;2.328;2023-01-10T13:36:22;21.20;41.50
72576;DHT22;60613;48.658;2.328;2023-01-10T13:38:57;21.20;41.20
72576;DHT22;60613;48.658;2.328;2023-01-10T13:41:23;21.20;41.60
72576;DHT22;60613;48.658;2.328;2023-01-10T13:44:12;21.20;41.40
72576;DHT22;60613;48.658;2.328;2023-01-10T13:46:46;21.20;41.40
72576;DHT22;60613;48.658;2.328;2023-01-10T13:51:39;21.20;41.30
72576;DHT22;60613;48.658;2.328;2023-01-10T13:54:25;21.30;41.50
72576;DHT22;60613;48.658;2.328;2023-01-10T13:56:52;21.30;42.60
72576;DHT22;60613;48.658;2.328;2023-01-10T14:02:21;21.30;41.30
72576;DHT22;60613;48.658;2.328;2023-01-10T14:05:06;21.30;41.10
72576;DHT22;60613;48.658;2.328;2023-01-10T14:07:43;21.20;41.40
72576;DHT22;60613;48.658;2.328;2023-01-10T14:15:22;21.30;40.80
72576;DHT22;60613;48.658;2.328;2023-01-10T14:18:16;21.30;41.30
72576;DHT22;60613;48.658;2.328;2023-01-10T14:20:43;21.30;41.20
72576;DHT22;60613;48.658;2.328;2023-01-10T14:23:20;21.30;41.10
72576;DHT22;60613;48.658;2.328;2023-01-10T14:25:55;21.30;41.10
72576;DHT22;60613;48.658;2.328;2023-01-10T14:28:29;21.30;41.10
72576;DHT22;60613;48.658;2.328;2023-01-10T14:31:18;21.30;41.10
72576;DHT22;60613;48.658;2.328;2023-01-10T14:33:45;21.30;41.10
72576;DHT22;60613;48.658;2.328;2023-01-10T14:36:19;21.30;41.10
72576;DHT22;60613;48.658;2.328;2023-01-10T14:38:49;21.30;41.20
72576;DHT22;60613;48.658;2.328;2023-01-10T14:41:24;21.20;41.20
72576;DHT22;60613;48.658;2.328;2023-01-10T14:43:56;21.00;41.60
72576;DHT22;60613;48.658;2.328;2023-01-10T14:46:28;20.90;42.10
72576;DHT22;60613;48.658;2.328;2023-01-10T14:48:55;20.80;42.30
72576;DHT22;60613;48.658;2.328;2023-01-10T14:51:29;20.70;42.60
72576;DHT22;60613;48.658;2.328;2023-01-10T14:56:43;20.90;42.50
72576;DHT22;60613;48.658;2.328;2023-01-10T14:59:31;21.00;42.40
72576;DHT22;60613;48.658;2.328;2023-01-10T15:02:09;21.20;42.40
72576;DHT22;60613;48.658;2.328;2023-01-10T15:04:38;21.30;42.20
72576;DHT22;60613;48.658;2.328;2023-01-10T15:07:14;21.40;42.20
72576;DHT22;60613;48.658;2.328;2023-01-10T15:09:47;21.50;42.10
72576;DHT22;60613;48.658;2.328;2023-01-10T15:12:15;21.50;41.90
72576;DHT22;60613;48.658;2.328;2023-01-10T15:14:42;21.60;41.80
72576;DHT22;60613;48.658;2.328;2023-01-10T15:17:12;21.60;42.90
72576;DHT22;60613;48.658;2.328;2023-01-10T15:19:42;21.70;41.60
72576;DHT22;60613;48.658;2.328;2023-01-10T15:22:29;21.70;40.30
72576;DHT22;60613;48.658;2.328;2023-01-10T15:25:03;21.70;40.00
72576;DHT22;60613;48.658;2.328;2023-01-10T15:27:30;21.70;40.10
72576;DHT22;60613;48.658;2.328;2023-01-10T15:29:57;21.70;40.10
72576;DHT22;60613;48.658;2.328;2023-01-10T15:32:29;21.70;40.20
72576;DHT22;60613;48.658;2.328;2023-01-10T15:34:58;21.80;40.00
72576;DHT22;60613;48.658;2.328;2023-01-10T15:37:28;21.80;39.90
72576;DHT22;60613;48.658;2.328;2023-01-10T15:39:59;21.80;39.90
72576;DHT22;60613;48.658;2.328;2023-01-10T15:42:25;21.80;39.80
72576;DHT22;60613;48.658;2.328;2023-01-10T15:44:51;21.80;39.90
72576;DHT22;60613;48.658;2.328;2023-01-10T15:47:37;21.80;39.90
72576;DHT22;60613;48.658;2.328;2023-01-10T15:52:49;21.80;40.10
72576;DHT22;60613;48.658;2.328;2023-01-10T15:55:42;21.80;40.10
72576;DHT22;60613;48.658;2.328;2023-01-10T15:58:28;21.80;39.90
72576;DHT22;60613;48.658;2.328;2023-01-10T16:00:56;21.80;39.90
72576;DHT22;60613;48.658;2.328;2023-01-10T16:03:36;21.80;39.80
72576;DHT22;60613;48.658;2.328;2023-01-10T16:06:03;21.90;39.70
72576;DHT22;60613;48.658;2.328;2023-01-10T16:08:35;21.80;39.70
72576;DHT22;60613;48.658;2.328;2023-01-10T16:11:19;21.90;39.70
72576;DHT22;60613;48.658;2.328;2023-01-10T16:14:06;21.90;39.70
72576;DHT22;60613;48.658;2.328;2023-01-10T16:16:32;21.90;39.70
72576;DHT22;60613;48.658;2.328;2023-01-10T16:18:57;21.90;39.80
72576;DHT22;60613;48.658;2.328;2023-01-10T16:21:31;21.90;39.70
72576;DHT22;60613;48.658;2.328;2023-01-10T16:23:59;21.90;39.80
72576;DHT22;60613;48.658;2.328;2023-01-10T16:26:24;21.90;39.60
72576;DHT22;60613;48.658;2.328;2023-01-10T16:28:50;21.90;39.60
72576;DHT22;60613;48.658;2.328;2023-01-10T16:31:16;22.00;39.70
72576;DHT22;60613;48.658;2.328;2023-01-10T16:33:41;22.00;39.60
72576;DHT22;60613;48.658;2.328;2023-01-10T16:36:17;22.00;39.50
72576;DHT22;60613;48.658;2.328;2023-01-10T16:38:44;22.00;39.50
72576;DHT22;60613;48.658;2.328;2023-01-10T16:41:11;22.00;39.50
72576;DHT22;60613;48.658;2.328;2023-01-10T16:43:56;22.00;39.40
72576;DHT22;60613;48.658;2.328;2023-01-10T16:46:22;22.10;39.50
72576;DHT22;60613;48.658;2.328;2023-01-10T16:48:48;22.00;39.50
72576;DHT22;60613;48.658;2.328;2023-01-10T16:51:26;22.00;40.60
72576;DHT22;60613;48.658;2.328;2023-01-10T16:53:53;22.10;39.40
72576;DHT22;60613;48.658;2.328;2023-01-10T16:56:27;22.10;39.40
72576;DHT22;60613;48.658;2.328;2023-01-10T16:58:53;22.00;39.30
72576;DHT22;60613;48.658;2.328;2023-01-10T17:01:25;22.00;39.40
72576;DHT22;60613;48.658;2.328;2023-01-10T17:03:53;22.00;39.50
72576;DHT22;60613;48.658;2.328;2023-01-10T17:06:19;22.00;39.60
72576;DHT22;60613;48.658;2.328;2023-01-10T17:08:45;22.00;39.70
72576;DHT22;60613;48.658;2.328;2023-01-10T17:11:17;21.90;39.80
72576;DHT22;60613;48.658;2.328;2023-01-10T17:13:44;21.90;39.90
72576;DHT22;60613;48.658;2.328;2023-01-10T17:16:10;21.90;40.00
72576;DHT22;60613;48.658;2.328;2023-01-10T17:18:36;21.80;40.00
72576;DHT22;60613;48.658;2.328;2023-01-10T17:21:03;21.80;39.90
72576;DHT22;60613;48.658;2.328;2023-01-10T17:23:29;21.80;39.90
72576;DHT22;60613;48.658;2.328;2023-01-10T17:26:03;21.80;40.00
72576;DHT22;60613;48.658;2.328;2023-01-10T17:28:30;21.80;40.00
72576;DHT22;60613;48.658;2.328;2023-01-10T17:30:56;21.80;40.10
72576;DHT22;60613;48.658;2.328;2023-01-10T17:33:23;21.80;41.30
72576;DHT22;60613;48.658;2.328;2023-01-10T17:35:55;21.80;40.10
72576;DHT22;60613;48.658;2.328;2023-01-10T17:38:22;21.80;40.20
72576;DHT22;60613;48.658;2.328;2023-01-10T17:40:48;21.80;40.10
72576;DHT22;60613;48.658;2.328;2023-01-10T17:43:15;21.80;40.10
72576;DHT22;60613;48.658;2.328;2023-01-10T17:45:43;21.80;40.20
72576;DHT22;60613;48.658;2.328;2023-01-10T17:48:09;21.80;40.20
72576;DHT22;60613;48.658;2.328;2023-01-10T17:50:37;21.80;40.10
72576;DHT22;60613;48.658;2.328;2023-01-10T17:53:03;21.80;40.20
72576;DHT22;60613;48.658;2.328;2023-01-10T17:55:29;21.80;40.20
72576;DHT22;60613;48.658;2.328;2023-01-10T17:57:54;21.80;40.20
72576;DHT22;60613;48.658;2.328;2023-01-10T18:00:20;21.70;40.20
72576;DHT22;60613;48.658;2.328;2023-01-10T18:02:46;21.70;40.30
72576;DHT22;60613;48.658;2.328;2023-01-10T18:05:11;21.70;40.40
72576;DHT22;60613;48.658;2.328;2023-01-10T18:07:37;21.70;40.40
72576;DHT22;60613;48.658;2.328;2023-01-10T18:10:03;21.70;40.60
72576;DHT22;60613;48.658;2.328;2023-01-10T18:12:29;21.70;40.60
72576;DHT22;60613;48.658;2.328;2023-01-10T18:14:54;21.60;40.50
72576;DHT22;60613;48.658;2.328;2023-01-10T18:17:20;21.70;40.60
72576;DHT22;60613;48.658;2.328;2023-01-10T18:19:46;21.60;40.60
72576;DHT22;60613;48.658;2.328;2023-01-10T18:22:11;21.60;40.60
72576;DHT22;60613;48.658;2.328;2023-01-10T18:24:56;21.60;40.70
72576;DHT22;60613;48.658;2.328;2023-01-10T18:27:24;21.60;40.80
72576;DHT22;60613;48.658;2.328;2023-01-10T18:29:50;21.60;40.70
72576;DHT22;60613;48.658;2.328;2023-01-10T18:32:16;21.60;40.70
72576;DHT22;60613;48.658;2.328;2023-01-10T18:34:42;21.60;40.80
72576;DHT22;60613;48.658;2.328;2023-01-10T18:37:09;21.60;40.80
72576;DHT22;60613;48.658;2.328;2023-01-10T18:39:34;21.60;40.70
72576;DHT22;60613;48.658;2.328;2023-01-10T18:42:00;21.60;40.70
72576;DHT22;60613;48.658;2.328;2023-01-10T18:44:26;21.60;40.70
72576;DHT22;60613;48.658;2.328;2023-01-10T18:46:51;21.60;40.90
72576;DHT22;60613;48.658;2.328;2023-01-10T18:49:17;21.60;40.90
72576;DHT22;60613;48.658;2.328;2023-01-10T18:51:42;21.60;40.90
72576;DHT22;60613;48.658;2.328;2023-01-10T18:54:08;21.60;40.80
72576;DHT22;60613;48.658;2.328;2023-01-10T18:56:34;21.60;40.90
72576;DHT22;60613;48.658;2.328;2023-01-10T18:58:59;21.60;40.80
72576;DHT22;60613;48.658;2.328;2023-01-10T19:01:25;21.60;40.90
72576;DHT22;60613;48.658;2.328;2023-01-10T19:03:53;21.70;40.90
72576;DHT22;60613;48.658;2.328;2023-01-10T19:06:20;21.70;41.00
72576;DHT22;60613;48.658;2.328;2023-01-10T19:08:47;21.70;40.90
72576;DHT22;60613;48.658;2.328;2023-01-10T19:11:16;21.60;40.90
72576;DHT22;60613;48.658;2.328;2023-01-10T19:13:44;21.70;41.00
72576;DHT22;60613;48.658;2.328;2023-01-10T19:16:22;21.70;41.00
72576;DHT22;60613;48.658;2.328;2023-01-10T19:18:51;21.70;41.00
72576;DHT22;60613;48.658;2.328;2023-01-10T19:21:18;21.70;41.00
72576;DHT22;60613;48.658;2.328;2023-01-10T19:23:45;21.70;41.10
72576;DHT22;60613;48.658;2.328;2023-01-10T19:26:12;21.70;41.20
72576;DHT22;60613;48.658;2.328;2023-01-10T19:28:38;21.70;41.20
72576;DHT22;60613;48.658;2.328;2023-01-10T19:31:04;21.70;41.10
72576;DHT22;60613;48.658;2.328;2023-01-10T19:33:31;21.70;41.20
72576;DHT22;60613;48.658;2.328;2023-01-10T19:35:57;21.70;41.30
72576;DHT22;60613;48.658;2.328;2023-01-10T19:38:22;21.70;41.30
72576;DHT22;60613;48.658;2.328;2023-01-10T19:40:51;21.70;41.30
72576;DHT22;60613;48.658;2.328;2023-01-10T19:43:18;21.70;41.30
72576;DHT22;60613;48.658;2.328;2023-01-10T19:45:46;21.70;41.30
72576;DHT22;60613;48.658;2.328;2023-01-10T19:48:11;21.70;41.20
72576;DHT22;60613;48.658;2.328;2023-01-10T19:50:37;21.70;41.30
72576;DHT22;60613;48.658;2.328;2023-01-10T19:53:03;21.70;41.30
72576;DHT22;60613;48.658;2.328;2023-01-10T19:55:28;21.70;41.30
72576;DHT22;60613;48.658;2.328;2023-01-10T19:57:54;21.80;41.40
72576;DHT22;60613;48.658;2.328;2023-01-10T20:00:20;21.80;41.50
72576;DHT22;60613;48.658;2.328;2023-01-10T20:02:46;21.80;41.40
72576;DHT22;60613;48.658;2.328;2023-01-10T20:05:11;21.70;41.50
72576;DHT22;60613;48.658;2.328;2023-01-10T20:07:37;21.70;41.40
72576;DHT22;60613;48.658;2.328;2023-01-10T20:10:03;21.70;41.40
72576;DHT22;60613;48.658;2.328;2023-01-10T20:12:28;21.70;41.50
72576;DHT22;60613;48.658;2.328;2023-01-10T20:14:54;21.70;41.40
72576;DHT22;60613;48.658;2.328;2023-01-10T20:17:20;21.80;41.40
72576;DHT22;60613;48.658;2.328;2023-01-10T20:19:45;21.70;41.40
72576;DHT22;60613;48.658;2.328;2023-01-10T20:22:13;21.70;41.40
72576;DHT22;60613;48.658;2.328;2023-01-10T20:24:38;21.80;41.40
72576;DHT22;60613;48.658;2.328;2023-01-10T20:27:04;21.80;41.50
72576;DHT22;60613;48.658;2.328;2023-01-10T20:29:35;21.80;41.40
72576;DHT22;60613;48.658;2.328;2023-01-10T20:32:02;21.80;41.40
72576;DHT22;60613;48.658;2.328;2023-01-10T20:34:28;21.80;41.40
72576;DHT22;60613;48.658;2.328;2023-01-10T20:36:54;21.80;41.40
72576;DHT22;60613;48.658;2.328;2023-01-10T20:39:21;21.80;41.40
72576;DHT22;60613;48.658;2.328;2023-01-10T20:41:47;21.80;41.40
72576;DHT22;60613;48.658;2.328;2023-01-10T20:44:12;21.80;41.50
72576;DHT22;60613;48.658;2.328;2023-01-10T20:46:38;21.80;41.40
72576;DHT22;60613;48.658;2.328;2023-01-10T20:49:04;21.80;41.50
72576;DHT22;60613;48.658;2.328;2023-01-10T20:51:32;21.80;41.40
72576;DHT22;60613;48.658;2.328;2023-01-10T20:53:58;21.80;41.50
72576;DHT22;60613;48.658;2.328;2023-01-10T20:56:27;21.80;41.40
72576;DHT22;60613;48.658;2.328;2023-01-10T20:58:53;21.90;41.40
72576;DHT22;60613;48.658;2.328;2023-01-10T21:01:19;21.80;41.40
72576;DHT22;60613;48.658;2.328;2023-01-10T21:03:46;21.80;41.40
72576;DHT22;60613;48.658;2.328;2023-01-10T21:06:13;21.80;41.40
72576;DHT22;60613;48.658;2.328;2023-01-10T21:08:39;21.90;41.50
72576;DHT22;60613;48.658;2.328;2023-01-10T21:11:06;21.80;41.50
72576;DHT22;60613;48.658;2.328;2023-01-10T21:13:32;21.80;41.40
72576;DHT22;60613;48.658;2.328;2023-01-10T21:15:59;21.90;41.50
72576;DHT22;60613;48.658;2.328;2023-01-10T21:18:30;21.80;41.50
72576;DHT22;60613;48.658;2.328;2023-01-10T21:20:56;21.90;41.50
72576;DHT22;60613;48.658;2.328;2023-01-10T21:23:23;21.90;41.50
72576;DHT22;60613;48.658;2.328;2023-01-10T21:25:50;21.90;41.50
72576;DHT22;60613;48.658;2.328;2023-01-10T21:28:16;21.90;41.50
72576;DHT22;60613;48.658;2.328;2023-01-10T21:30:42;21.90;41.60
72576;DHT22;60613;48.658;2.328;2023-01-10T21:33:09;21.90;41.50
72576;DHT22;60613;48.658;2.328;2023-01-10T21:35:35;21.90;42.70
72576;DHT22;60613;48.658;2.328;2023-01-10T21:38:01;21.90;41.50
72576;DHT22;60613;48.658;2.328;2023-01-10T21:40:27;22.00;41.60
72576;DHT22;60613;48.658;2.328;2023-01-10T21:42:53;21.90;41.50
72576;DHT22;60613;48.658;2.328;2023-01-10T21:45:20;21.90;41.50
72576;DHT22;60613;48.658;2.328;2023-01-10T21:47:47;21.90;41.50
72576;DHT22;60613;48.658;2.328;2023-01-10T21:50:14;21.90;41.50
72576;DHT22;60613;48.658;2.328;2023-01-10T21:52:41;21.90;41.50
72576;DHT22;60613;48.658;2.328;2023-01-10T21:55:08;21.90;41.50
72576;DHT22;60613;48.658;2.328;2023-01-10T21:57:34;22.00;41.60
72576;DHT22;60613;48.658;2.328;2023-01-10T22:00:00;22.00;41.70
